Flight Track Log - Related Links

Times and Time Zones

All times are in EDT time to prevent confusion due to time zone crossing. See the ASQ5941 flight status page for this flight to view local times or setup timezone preferences in your user account.

Time Position Orientation Groundspeed Altitude Reporting Facility
EDT Latitude Longitude Course Direction KTS MPH feet Rate Location/Type
Thu 05:09:31 PM 41.2775 -75.8478 278° West 236 272 6,300  Level New York Center
Thu 05:10:29 PM 41.3358 -75.8936 329° Northwest 247 284 7,900 857 Climbing New York Center
Thu 05:11:30 PM 41.3983 -75.9428 329° Northwest 252 290 8,000 344 Climbing New York Center
Thu 05:12:31 PM 41.4608 -75.9892 331° Northwest 252 290 8,600 1,388 Climbing New York Center
Thu 05:13:00 PM 41.5290 -76.1018 312° West  Level FlightAware Approximate
Thu 05:13:31 PM 41.5153 -76.0294 331° Northwest 252 290 10,800  Level New York Center
Thu 05:14:30 PM 41.5800 -76.0733 333° Northwest 257 296 12,500 1,700 Climbing New York Center
Thu 05:15:31 PM 41.6483 -76.1286 329° Northwest 257 296 14,200 1,438 Climbing New York Center
Thu 05:16:31 PM 41.6839 -76.2203 297° West 257 296 15,400 1,119 Climbing New York Center
Thu 05:17:29 PM 41.7086 -76.3142 289° West 279 321 16,400 1,109 Climbing New York Center
Thu 05:18:30 PM 41.7411 -76.4197 292° West 294 338 17,600 1,180 Climbing New York Center
Thu 05:19:31 PM 41.7747 -76.5422 290° West 311 358 18,800 1,140 Climbing New York Center
Thu 05:20:31 PM 41.8069 -76.6533 291° West 311 358 19,900 1,169 Climbing New York Center
Thu 05:21:29 PM 41.8367 -76.7647 290° West 311 358 21,100 1,154 Climbing New York Center
Thu 05:23:33 PM 41.9000 -77.0008 290° West 317 365 23,400 946 Climbing Cleveland Center
Thu 05:24:33 PM 41.9328 -77.1164 291° West 323 372 24,000 300 Climbing Cleveland Center
Thu 05:25:33 PM 41.9656 -77.2403 290° West 342 394 24,000  Level Cleveland Center
Thu 05:26:33 PM 42.0025 -77.3697 291° West 353 406 24,000  Level Cleveland Center
Thu 05:27:33 PM 42.0353 -77.4994 289° West 366 421 24,000  Level Cleveland Center
Thu 05:28:33 PM 42.0700 -77.6319 289° West 372 428 24,000  Level Cleveland Center
Thu 05:29:33 PM 42.1069 -77.7675 290° West 378 435 24,000  Level Cleveland Center
Thu 05:30:33 PM 42.1433 -77.9003 290° West 378 435 24,000  Level Cleveland Center
Thu 05:31:33 PM 42.1800 -78.0389 290° West 378 435 24,000  Level Cleveland Center
Thu 05:32:33 PM 42.2142 -78.1750 289° West 378 435 24,000  Level Cleveland Center
Thu 05:33:33 PM 42.2503 -78.3083 290° West 378 435 24,000  Level Cleveland Center
Thu 05:34:33 PM 42.2842 -78.4472 288° West 383 441 24,000  Level Cleveland Center
Thu 05:35:33 PM 42.3200 -78.5836 290° West 383 441 24,000  Level Cleveland Center
Thu 05:36:33 PM 42.3536 -78.7203 288° West 383 441 24,000  Level Cleveland Center
Thu 05:37:33 PM 42.3869 -78.8600 288° West 383 441 24,000  Level Cleveland Center
Thu 05:38:33 PM 42.4200 -78.9942 288° West 383 441 24,000  Level Cleveland Center
Thu 05:39:33 PM 42.4531 -79.1200 290° West 383 441 24,000  Level Cleveland Center
Thu 05:40:33 PM 42.4858 -79.2542 288° West 383 441 24,000  Level Cleveland Center
Thu 05:41:33 PM 42.5000 -79.4003 278° West 383 441 24,000  Level Cleveland Center
Thu 05:42:33 PM 42.5078 -79.5467 274° West 389 448 24,000  Level Cleveland Center
Thu 05:43:33 PM 42.5131 -79.6903 273° West 389 448 24,000  Level Cleveland Center
Thu 05:44:33 PM 42.5203 -79.8339 274° West 384 442 24,000  Level Cleveland Center
Thu 05:45:33 PM 42.5253 -79.9944 272° West 384 442 24,000  Level Cleveland Center
Thu 05:46:33 PM 42.5322 -80.1436 274° West 384 442 24,000  Level Cleveland Center
Thu 05:47:33 PM 42.5369 -80.2872 273° West 384 442 24,000  Level Cleveland Center
Thu 05:48:33 PM 42.5436 -80.4311 274° West 384 442 24,000  Level Cleveland Center
Thu 05:49:33 PM 42.5478 -80.5633 272° West 384 442 24,000  Level Cleveland Center
Thu 05:50:33 PM 42.5561 -80.7072 275° West 384 442 24,000  Level Cleveland Center
Thu 05:51:33 PM 42.5600 -80.8539 272° West 384 442 24,000  Level Cleveland Center
Thu 05:52:33 PM 42.5636 -81.0003 272° West 389 448 24,000  Level Cleveland Center
Thu 05:53:33 PM 42.5714 -81.1500 274° West 389 448 24,000  Level Cleveland Center
Thu 05:54:33 PM 42.5747 -81.2964 272° West 389 448 24,000  Level Cleveland Center
Thu 05:55:33 PM 42.5819 -81.4461 274° West 394 453 24,000  Level Cleveland Center
Thu 05:56:33 PM 42.6078 -81.6044 283° West 394 453 24,000  Level Cleveland Center
Thu 05:57:33 PM 42.6356 -81.7458 285° West 395 455 24,000  Level Cleveland Center
Thu 05:58:33 PM 42.6550 -81.8733 282° West 395 455 24,000  Level Cleveland Center
Thu 05:59:33 PM 42.6806 -82.0150 284° West 395 455 24,000  Level Cleveland Center
Thu 06:00:33 PM 42.7058 -82.1597 283° West 395 455 24,000  Level Cleveland Center
Thu 06:01:33 PM 42.7308 -82.3017 284° West 395 455 24,000  Level Cleveland Center
Thu 06:02:33 PM 42.7661 -82.4383 289° West 390 449 24,000  Level Cleveland Center
Thu 06:03:33 PM 42.8458 -82.5400 317° Northwest 383 441 24,000  Level Cleveland Center
Thu 06:04:33 PM 42.9275 -82.6389 318° Northwest 383 441 24,000  Level Cleveland Center
Thu 06:05:33 PM 43.0111 -82.7381 319° Northwest 388 447 24,000  Level Cleveland Center
Thu 06:06:33 PM 43.0925 -82.8378 318° Northwest 393 452 24,000  Level Cleveland Center
Thu 06:07:33 PM 43.1211 -82.9753 286° West 380 437 24,000  Level Cleveland Center
Thu 06:08:33 PM 43.0972 -83.1136 257° West 353 406 24,000  Level Cleveland Center
Thu 06:09:33 PM 43.0669 -83.2544 254° West 370 426 24,000  Level Cleveland Center
Thu 06:10:33 PM 43.0386 -83.3953 255° West 381 438 24,000  Level Cleveland Center
Thu 06:11:33 PM 43.0103 -83.5333 254° West 381 438 24,000  Level Cleveland Center
Thu 06:12:33 PM 42.9794 -83.6736 253° West 386 444 24,000  Level Cleveland Center
Thu 06:13:33 PM 42.9589 -83.8175 259° West 386 444 24,000  Level Cleveland Center
Thu 06:14:33 PM 42.9333 -83.9750 258° West 391 450 24,000  Level Cleveland Center
Thu 06:15:33 PM 42.9294 -84.1053 268° West 386 444 24,000  Level Cleveland Center
Thu 06:17:25 PM 42.9064 -84.3678 263° West 382 440 24,000  Level Chicago Center
Thu 06:18:27 PM 42.8919 -84.5136 262° West 386 444 24,000  Level Chicago Center
Thu 06:19:29 PM 42.8733 -84.6883 262° West 389 448 24,000  Level Chicago Center
Thu 06:20:31 PM 42.8586 -84.8342 262° West 389 448 24,000  Level Chicago Center
Thu 06:21:33 PM 42.8431 -84.9806 262° West 391 450 24,000  Level Chicago Center
Thu 06:22:35 PM 42.8275 -85.1286 262° West 393 452 24,000  Level Chicago Center
Thu 06:23:37 PM 42.8108 -85.2761 261° West 395 455 24,000  Level Chicago Center
Thu 06:24:39 PM 42.7947 -85.4250 262° West 396 456 24,000  Level Chicago Center
Thu 06:25:41 PM 42.7736 -85.5744 259° West 400 460 24,000  Level Chicago Center
Thu 06:26:43 PM 42.7394 -85.7611 256° West 419 482 24,000 -145 Level Chicago Center
Thu 06:27:45 PM 42.7108 -85.9164 256° West 420 483 23,700 -720 Descending Chicago Center
Thu 06:28:48 PM 42.6831 -86.0694 256° West 415 478 22,500 -1,680 Descending Chicago Center
Thu 06:29:50 PM 42.6567 -86.2156 256° West 401 461 20,200 -1,210 Descending Chicago Center
Thu 06:30:52 PM 42.6289 -86.3572 255° West 388 447 20,000 -97 Descending Chicago Center
Thu 06:31:54 PM 42.6019 -86.5036 256° West 398 458 20,000 -194 Level Chicago Center
Thu 06:32:56 PM 42.5753 -86.6461 256° West 394 453 19,600 -2,081 Descending Chicago Center
Thu 06:33:58 PM 42.5417 -86.8036 254° West 368 423 15,700 -3,484 Descending Chicago Center
Thu 06:35:00 PM 42.5078 -86.9208 249° West 344 396 12,400 -2,661 Descending Chicago Center
Thu 06:36:02 PM 42.4783 -87.0311 250° West 317 365 10,200 -1,161 Descending Chicago Center
Thu 06:37:04 PM 42.4481 -87.1414 250° West 313 360 10,000 -97 Descending Chicago Center
Thu 06:38:06 PM 42.4153 -87.2544 249° West 322 371 10,000 -435 Level Chicago Center
Thu 06:39:08 PM 42.3850 -87.3517 247° West 280 322 9,100 -1,306 Descending Chicago Center
Thu 06:40:10 PM 42.3322 -87.4556 236° Southwest 276 318 7,300 -1,008 Descending Chicago Center
Thu 06:41:13 PM 42.2944 -87.5342 237° Southwest 273 314 7,000 -288 Descending Chicago Center
Thu 06:42:15 PM 42.2511 -87.6203 236° Southwest 278 320 6,700 -726 Descending Chicago Center
Thu 06:43:17 PM 42.1808 -87.6933 218° Southwest 271 312 5,500 -1,355 Descending Chicago Center
Thu 06:44:19 PM 42.1258 -87.7575 221° Southwest 264 304 3,900 -1,434 Descending Chicago Center
Thu 06:45:10 PM 42.0833 -87.8000 217° Southwest 219 252 2,800 -1,143 Descending Chicago TRACON
Thu 06:46:04 PM 42.0500 -87.8500 228° Southwest 187 215 1,900 -900 Descending Chicago TRACON
Thu 06:47:10 PM 42.0167 -87.8833 217° Southwest 147 169 1,000 -818 Descending Chicago TRACON
Thu 06:49:00 PM 41.9817 -87.9067 217° Southwest  Level Estimated

Login

Don't have an account? Register now (free) for customized features, flight alerts, and more!